sensor_id;sensor_type;location;lat;lon;timestamp;P1;durP1;ratioP1;P2;durP2;ratioP2
870;SDS011;422;51.280;7.236;2022-09-21T00:01:15;6.47;;;4.20;;
870;SDS011;422;51.280;7.236;2022-09-21T00:03:43;7.13;;;3.60;;
870;SDS011;422;51.280;7.236;2022-09-21T00:06:17;4.30;;;3.73;;
870;SDS011;422;51.280;7.236;2022-09-21T00:08:46;6.27;;;4.57;;
870;SDS011;422;51.280;7.236;2022-09-21T00:11:14;9.33;;;4.73;;
870;SDS011;422;51.280;7.236;2022-09-21T00:13:43;5.87;;;4.20;;
870;SDS011;422;51.280;7.236;2022-09-21T00:16:12;5.07;;;4.20;;
870;SDS011;422;51.280;7.236;2022-09-21T00:18:40;8.33;;;4.73;;
870;SDS011;422;51.280;7.236;2022-09-21T00:21:08;5.23;;;4.60;;
870;SDS011;422;51.280;7.236;2022-09-21T00:23:42;5.83;;;3.77;;
870;SDS011;422;51.280;7.236;2022-09-21T00:26:11;7.13;;;4.50;;
870;SDS011;422;51.280;7.236;2022-09-21T00:28:42;7.20;;;4.63;;
870;SDS011;422;51.280;7.236;2022-09-21T00:31:11;9.27;;;4.70;;
870;SDS011;422;51.280;7.236;2022-09-21T00:33:41;6.80;;;4.20;;
870;SDS011;422;51.280;7.236;2022-09-21T00:36:09;7.13;;;3.93;;
870;SDS011;422;51.280;7.236;2022-09-21T00:38:38;5.07;;;4.00;;
870;SDS011;422;51.280;7.236;2022-09-21T00:41:07;6.50;;;4.40;;
870;SDS011;422;51.280;7.236;2022-09-21T00:43:37;12.90;;;5.50;;
870;SDS011;422;51.280;7.236;2022-09-21T00:46:12;8.83;;;4.77;;
870;SDS011;422;51.280;7.236;2022-09-21T00:48:52;10.47;;;4.90;;
870;SDS011;422;51.280;7.236;2022-09-21T00:51:19;11.80;;;5.50;;
870;SDS011;422;51.280;7.236;2022-09-21T00:53:47;6.70;;;4.70;;
870;SDS011;422;51.280;7.236;2022-09-21T00:56:20;6.90;;;4.53;;
870;SDS011;422;51.280;7.236;2022-09-21T00:58:51;6.97;;;4.60;;
870;SDS011;422;51.280;7.236;2022-09-21T01:01:20;6.37;;;4.70;;
870;SDS011;422;51.280;7.236;2022-09-21T01:03:49;9.07;;;4.47;;
870;SDS011;422;51.280;7.236;2022-09-21T01:06:21;6.60;;;4.10;;
870;SDS011;422;51.280;7.236;2022-09-21T01:08:51;8.53;;;4.63;;
870;SDS011;422;51.280;7.236;2022-09-21T01:11:26;6.80;;;4.47;;
870;SDS011;422;51.280;7.236;2022-09-21T01:14:19;12.07;;;5.57;;
870;SDS011;422;51.280;7.236;2022-09-21T01:16:59;5.70;;;4.90;;
870;SDS011;422;51.280;7.236;2022-09-21T01:19:46;7.17;;;5.47;;
870;SDS011;422;51.280;7.236;2022-09-21T01:22:35;8.30;;;5.00;;
870;SDS011;422;51.280;7.236;2022-09-21T01:25:15;8.23;;;5.27;;
870;SDS011;422;51.280;7.236;2022-09-21T01:27:58;11.20;;;6.00;;
870;SDS011;422;51.280;7.236;2022-09-21T01:30:35;6.63;;;5.60;;
870;SDS011;422;51.280;7.236;2022-09-21T01:33:08;7.80;;;5.03;;
870;SDS011;422;51.280;7.236;2022-09-21T01:35:41;9.23;;;5.70;;
870;SDS011;422;51.280;7.236;2022-09-21T01:38:14;10.77;;;6.00;;
870;SDS011;422;51.280;7.236;2022-09-21T01:40:48;6.50;;;5.10;;
870;SDS011;422;51.280;7.236;2022-09-21T01:43:21;7.17;;;5.83;;
870;SDS011;422;51.280;7.236;2022-09-21T01:45:58;8.70;;;5.90;;
870;SDS011;422;51.280;7.236;2022-09-21T01:48:29;9.60;;;4.70;;
870;SDS011;422;51.280;7.236;2022-09-21T01:51:00;7.77;;;4.70;;
870;SDS011;422;51.280;7.236;2022-09-21T01:53:38;8.67;;;5.30;;
870;SDS011;422;51.280;7.236;2022-09-21T01:56:09;6.93;;;5.10;;
870;SDS011;422;51.280;7.236;2022-09-21T01:58:41;8.30;;;5.83;;
870;SDS011;422;51.280;7.236;2022-09-21T02:01:14;5.37;;;4.47;;
870;SDS011;422;51.280;7.236;2022-09-21T02:03:46;9.53;;;5.40;;
870;SDS011;422;51.280;7.236;2022-09-21T02:06:17;7.70;;;6.60;;
870;SDS011;422;51.280;7.236;2022-09-21T02:08:45;11.37;;;6.33;;
870;SDS011;422;51.280;7.236;2022-09-21T02:11:13;8.60;;;6.30;;
870;SDS011;422;51.280;7.236;2022-09-21T02:13:45;9.47;;;6.43;;
870;SDS011;422;51.280;7.236;2022-09-21T02:16:24;9.70;;;6.20;;
870;SDS011;422;51.280;7.236;2022-09-21T02:19:03;12.07;;;7.30;;
870;SDS011;422;51.280;7.236;2022-09-21T02:21:50;10.20;;;6.63;;
870;SDS011;422;51.280;7.236;2022-09-21T02:24:31;7.40;;;6.23;;
870;SDS011;422;51.280;7.236;2022-09-21T02:27:04;13.93;;;5.70;;
870;SDS011;422;51.280;7.236;2022-09-21T02:29:38;9.30;;;6.30;;
870;SDS011;422;51.280;7.236;2022-09-21T02:32:16;8.53;;;6.10;;
870;SDS011;422;51.280;7.236;2022-09-21T02:34:51;7.57;;;6.13;;
870;SDS011;422;51.280;7.236;2022-09-21T02:37:23;9.63;;;6.60;;
870;SDS011;422;51.280;7.236;2022-09-21T02:39:58;8.43;;;5.80;;
870;SDS011;422;51.280;7.236;2022-09-21T02:42:30;7.30;;;5.87;;
870;SDS011;422;51.280;7.236;2022-09-21T02:45:06;9.10;;;5.67;;
870;SDS011;422;51.280;7.236;2022-09-21T02:47:40;11.10;;;6.80;;
870;SDS011;422;51.280;7.236;2022-09-21T02:50:13;9.20;;;6.10;;
870;SDS011;422;51.280;7.236;2022-09-21T02:52:45;10.17;;;6.57;;
870;SDS011;422;51.280;7.236;2022-09-21T02:55:12;7.33;;;5.47;;
870;SDS011;422;51.280;7.236;2022-09-21T02:57:43;9.47;;;5.47;;
870;SDS011;422;51.280;7.236;2022-09-21T03:00:13;7.30;;;6.00;;
870;SDS011;422;51.280;7.236;2022-09-21T03:02:44;7.67;;;5.63;;
870;SDS011;422;51.280;7.236;2022-09-21T03:05:15;8.27;;;6.03;;
870;SDS011;422;51.280;7.236;2022-09-21T03:07:45;5.90;;;5.30;;
870;SDS011;422;51.280;7.236;2022-09-21T03:10:12;6.80;;;6.10;;
870;SDS011;422;51.280;7.236;2022-09-21T03:12:40;13.07;;;6.17;;
870;SDS011;422;51.280;7.236;2022-09-21T03:15:11;6.87;;;5.53;;
870;SDS011;422;51.280;7.236;2022-09-21T03:17:40;8.27;;;6.47;;
870;SDS011;422;51.280;7.236;2022-09-21T03:20:09;7.90;;;5.10;;
870;SDS011;422;51.280;7.236;2022-09-21T03:22:36;8.90;;;5.40;;
870;SDS011;422;51.280;7.236;2022-09-21T03:25:03;8.57;;;5.80;;
870;SDS011;422;51.280;7.236;2022-09-21T03:27:33;7.83;;;5.80;;
870;SDS011;422;51.280;7.236;2022-09-21T03:30:00;7.17;;;5.30;;
870;SDS011;422;51.280;7.236;2022-09-21T03:32:27;7.50;;;5.97;;
870;SDS011;422;51.280;7.236;2022-09-21T03:34:54;6.53;;;5.80;;
870;SDS011;422;51.280;7.236;2022-09-21T03:37:23;9.13;;;7.27;;
870;SDS011;422;51.280;7.236;2022-09-21T03:39:50;7.80;;;6.00;;
870;SDS011;422;51.280;7.236;2022-09-21T03:42:17;7.03;;;4.93;;
870;SDS011;422;51.280;7.236;2022-09-21T03:44:44;8.17;;;6.00;;
870;SDS011;422;51.280;7.236;2022-09-21T03:47:13;8.97;;;5.97;;
870;SDS011;422;51.280;7.236;2022-09-21T03:49:41;6.73;;;6.03;;
870;SDS011;422;51.280;7.236;2022-09-21T03:52:14;9.60;;;6.40;;
870;SDS011;422;51.280;7.236;2022-09-21T03:54:42;8.07;;;5.87;;
870;SDS011;422;51.280;7.236;2022-09-21T03:57:09;10.70;;;5.80;;
870;SDS011;422;51.280;7.236;2022-09-21T03:59:36;8.13;;;6.07;;
870;SDS011;422;51.280;7.236;2022-09-21T04:02:04;8.53;;;6.10;;
870;SDS011;422;51.280;7.236;2022-09-21T04:04:31;8.37;;;6.30;;
870;SDS011;422;51.280;7.236;2022-09-21T04:06:58;8.83;;;6.20;;
870;SDS011;422;51.280;7.236;2022-09-21T04:09:26;7.23;;;6.10;;
870;SDS011;422;51.280;7.236;2022-09-21T04:11:54;8.00;;;5.97;;
870;SDS011;422;51.280;7.236;2022-09-21T04:14:21;8.20;;;6.30;;
870;SDS011;422;51.280;7.236;2022-09-21T04:16:49;9.50;;;6.20;;
870;SDS011;422;51.280;7.236;2022-09-21T04:19:16;8.90;;;6.60;;
870;SDS011;422;51.280;7.236;2022-09-21T04:21:46;8.80;;;6.60;;
870;SDS011;422;51.280;7.236;2022-09-21T04:24:15;7.80;;;5.83;;
870;SDS011;422;51.280;7.236;2022-09-21T04:26:43;7.27;;;5.97;;
870;SDS011;422;51.280;7.236;2022-09-21T04:29:13;13.67;;;6.60;;
870;SDS011;422;51.280;7.236;2022-09-21T04:31:40;9.03;;;7.10;;
870;SDS011;422;51.280;7.236;2022-09-21T04:34:10;9.00;;;7.00;;
870;SDS011;422;51.280;7.236;2022-09-21T04:36:39;7.90;;;6.30;;
870;SDS011;422;51.280;7.236;2022-09-21T04:39:06;12.30;;;6.40;;
870;SDS011;422;51.280;7.236;2022-09-21T04:41:33;7.57;;;6.07;;
870;SDS011;422;51.280;7.236;2022-09-21T04:44:01;7.97;;;5.90;;
870;SDS011;422;51.280;7.236;2022-09-21T04:46:29;7.33;;;5.63;;
870;SDS011;422;51.280;7.236;2022-09-21T04:48:59;9.00;;;7.30;;
870;SDS011;422;51.280;7.236;2022-09-21T04:51:27;8.90;;;5.93;;
870;SDS011;422;51.280;7.236;2022-09-21T04:53:54;8.10;;;6.43;;
870;SDS011;422;51.280;7.236;2022-09-21T04:56:23;8.30;;;5.63;;
870;SDS011;422;51.280;7.236;2022-09-21T04:58:50;7.40;;;5.57;;
870;SDS011;422;51.280;7.236;2022-09-21T05:01:18;6.87;;;5.80;;
870;SDS011;422;51.280;7.236;2022-09-21T05:03:46;8.17;;;5.60;;
870;SDS011;422;51.280;7.236;2022-09-21T05:06:13;7.17;;;6.00;;
870;SDS011;422;51.280;7.236;2022-09-21T05:08:40;6.83;;;5.77;;
870;SDS011;422;51.280;7.236;2022-09-21T05:11:26;7.80;;;6.60;;
870;SDS011;422;51.280;7.236;2022-09-21T05:13:53;8.00;;;6.60;;
870;SDS011;422;51.280;7.236;2022-09-21T05:16:20;8.67;;;7.20;;
870;SDS011;422;51.280;7.236;2022-09-21T05:18:51;10.33;;;7.60;;
870;SDS011;422;51.280;7.236;2022-09-21T05:21:20;10.33;;;8.07;;
870;SDS011;422;51.280;7.236;2022-09-21T05:23:48;9.30;;;8.20;;
870;SDS011;422;51.280;7.236;2022-09-21T05:26:15;11.83;;;8.90;;
870;SDS011;422;51.280;7.236;2022-09-21T05:28:43;11.40;;;7.93;;
870;SDS011;422;51.280;7.236;2022-09-21T05:31:11;9.60;;;8.00;;
870;SDS011;422;51.280;7.236;2022-09-21T05:33:55;10.47;;;7.60;;
870;SDS011;422;51.280;7.236;2022-09-21T05:36:32;11.00;;;7.00;;
870;SDS011;422;51.280;7.236;2022-09-21T05:39:07;8.67;;;7.07;;
870;SDS011;422;51.280;7.236;2022-09-21T05:41:36;9.13;;;6.63;;
870;SDS011;422;51.280;7.236;2022-09-21T05:44:07;10.43;;;7.30;;
870;SDS011;422;51.280;7.236;2022-09-21T05:46:38;9.37;;;6.60;;
870;SDS011;422;51.280;7.236;2022-09-21T05:49:11;9.07;;;7.97;;
870;SDS011;422;51.280;7.236;2022-09-21T05:51:46;11.20;;;7.27;;
870;SDS011;422;51.280;7.236;2022-09-21T05:54:22;8.83;;;6.23;;
870;SDS011;422;51.280;7.236;2022-09-21T05:56:59;8.80;;;6.90;;
870;SDS011;422;51.280;7.236;2022-09-21T05:59:38;9.63;;;6.90;;
870;SDS011;422;51.280;7.236;2022-09-21T06:02:17;8.70;;;5.93;;
870;SDS011;422;51.280;7.236;2022-09-21T06:04:53;8.10;;;6.50;;
870;SDS011;422;51.280;7.236;2022-09-21T06:07:23;12.47;;;6.90;;
870;SDS011;422;51.280;7.236;2022-09-21T06:09:52;10.50;;;6.73;;
870;SDS011;422;51.280;7.236;2022-09-21T06:12:19;10.60;;;7.37;;
870;SDS011;422;51.280;7.236;2022-09-21T06:14:46;8.13;;;6.73;;
870;SDS011;422;51.280;7.236;2022-09-21T06:17:14;9.67;;;7.50;;
870;SDS011;422;51.280;7.236;2022-09-21T06:19:41;16.23;;;8.27;;
870;SDS011;422;51.280;7.236;2022-09-21T06:22:13;12.47;;;8.67;;
870;SDS011;422;51.280;7.236;2022-09-21T06:24:40;10.03;;;8.27;;
870;SDS011;422;51.280;7.236;2022-09-21T06:27:09;10.73;;;9.00;;
870;SDS011;422;51.280;7.236;2022-09-21T06:29:37;8.23;;;7.40;;
870;SDS011;422;51.280;7.236;2022-09-21T06:32:04;10.27;;;8.40;;
870;SDS011;422;51.280;7.236;2022-09-21T06:34:31;13.37;;;10.13;;
870;SDS011;422;51.280;7.236;2022-09-21T06:36:58;15.53;;;12.47;;
870;SDS011;422;51.280;7.236;2022-09-21T06:39:27;19.33;;;11.00;;
870;SDS011;422;51.280;7.236;2022-09-21T06:41:56;16.07;;;10.20;;
870;SDS011;422;51.280;7.236;2022-09-21T06:44:23;17.50;;;9.20;;
870;SDS011;422;51.280;7.236;2022-09-21T06:46:51;28.00;;;10.30;;
870;SDS011;422;51.280;7.236;2022-09-21T06:49:18;19.00;;;10.67;;
870;SDS011;422;51.280;7.236;2022-09-21T06:51:48;15.93;;;10.60;;
870;SDS011;422;51.280;7.236;2022-09-21T06:54:15;12.10;;;7.97;;
870;SDS011;422;51.280;7.236;2022-09-21T06:56:44;20.23;;;10.23;;
870;SDS011;422;51.280;7.236;2022-09-21T06:59:11;23.70;;;10.40;;
870;SDS011;422;51.280;7.236;2022-09-21T07:01:38;17.00;;;8.90;;
870;SDS011;422;51.280;7.236;2022-09-21T07:04:05;18.80;;;9.00;;
870;SDS011;422;51.280;7.236;2022-09-21T07:06:35;29.30;;;9.50;;
870;SDS011;422;51.280;7.236;2022-09-21T07:09:05;18.33;;;10.10;;
870;SDS011;422;51.280;7.236;2022-09-21T07:11:32;27.60;;;10.90;;
870;SDS011;422;51.280;7.236;2022-09-21T07:14:19;19.23;;;9.27;;
870;SDS011;422;51.280;7.236;2022-09-21T07:16:47;24.57;;;18.10;;
870;SDS011;422;51.280;7.236;2022-09-21T07:19:14;16.40;;;9.07;;
870;SDS011;422;51.280;7.236;2022-09-21T07:21:42;12.17;;;8.47;;
870;SDS011;422;51.280;7.236;2022-09-21T07:24:09;21.67;;;11.47;;
870;SDS011;422;51.280;7.236;2022-09-21T07:26:36;15.87;;;9.13;;
870;SDS011;422;51.280;7.236;2022-09-21T07:29:04;16.30;;;9.10;;
870;SDS011;422;51.280;7.236;2022-09-21T07:31:33;20.97;;;9.13;;
870;SDS011;422;51.280;7.236;2022-09-21T07:34:00;14.70;;;9.00;;
870;SDS011;422;51.280;7.236;2022-09-21T07:36:27;13.87;;;7.67;;
870;SDS011;422;51.280;7.236;2022-09-21T07:38:55;18.33;;;9.20;;
870;SDS011;422;51.280;7.236;2022-09-21T07:41:22;12.43;;;9.07;;
870;SDS011;422;51.280;7.236;2022-09-21T07:43:49;14.23;;;7.27;;
870;SDS011;422;51.280;7.236;2022-09-21T07:46:17;13.10;;;7.60;;
870;SDS011;422;51.280;7.236;2022-09-21T07:48:46;12.10;;;6.87;;
870;SDS011;422;51.280;7.236;2022-09-21T07:51:15;9.03;;;6.00;;
870;SDS011;422;51.280;7.236;2022-09-21T07:53:42;10.43;;;5.60;;
870;SDS011;422;51.280;7.236;2022-09-21T07:56:10;9.27;;;5.40;;
870;SDS011;422;51.280;7.236;2022-09-21T07:58:39;9.33;;;5.10;;
870;SDS011;422;51.280;7.236;2022-09-21T08:01:23;8.37;;;6.10;;
870;SDS011;422;51.280;7.236;2022-09-21T08:03:54;7.43;;;4.50;;
870;SDS011;422;51.280;7.236;2022-09-21T08:06:23;13.70;;;5.50;;
870;SDS011;422;51.280;7.236;2022-09-21T08:08:54;7.63;;;5.40;;
870;SDS011;422;51.280;7.236;2022-09-21T08:11:21;7.33;;;4.80;;
870;SDS011;422;51.280;7.236;2022-09-21T08:13:51;5.90;;;4.70;;
870;SDS011;422;51.280;7.236;2022-09-21T08:16:20;6.53;;;5.13;;
870;SDS011;422;51.280;7.236;2022-09-21T08:18:52;7.80;;;5.10;;
870;SDS011;422;51.280;7.236;2022-09-21T08:21:26;5.20;;;4.70;;
870;SDS011;422;51.280;7.236;2022-09-21T08:23:53;10.30;;;4.43;;
870;SDS011;422;51.280;7.236;2022-09-21T08:26:29;6.00;;;4.33;;
870;SDS011;422;51.280;7.236;2022-09-21T08:28:57;7.40;;;4.50;;
870;SDS011;422;51.280;7.236;2022-09-21T08:31:27;7.57;;;4.53;;
870;SDS011;422;51.280;7.236;2022-09-21T08:33:56;5.17;;;4.47;;
870;SDS011;422;51.280;7.236;2022-09-21T08:36:24;9.17;;;4.47;;
870;SDS011;422;51.280;7.236;2022-09-21T08:38:52;7.50;;;3.33;;
870;SDS011;422;51.280;7.236;2022-09-21T08:41:22;7.93;;;3.67;;
870;SDS011;422;51.280;7.236;2022-09-21T08:43:53;4.53;;;2.70;;
870;SDS011;422;51.280;7.236;2022-09-21T08:46:26;5.90;;;2.97;;
870;SDS011;422;51.280;7.236;2022-09-21T08:48:55;5.23;;;2.73;;
870;SDS011;422;51.280;7.236;2022-09-21T08:51:28;3.50;;;3.13;;
870;SDS011;422;51.280;7.236;2022-09-21T08:53:58;6.70;;;3.23;;
870;SDS011;422;51.280;7.236;2022-09-21T08:56:30;6.33;;;2.50;;
870;SDS011;422;51.280;7.236;2022-09-21T08:58:57;3.60;;;2.50;;
870;SDS011;422;51.280;7.236;2022-09-21T09:01:27;5.53;;;2.77;;
870;SDS011;422;51.280;7.236;2022-09-21T09:04:18;7.23;;;2.60;;
870;SDS011;422;51.280;7.236;2022-09-21T09:06:59;4.50;;;2.20;;
870;SDS011;422;51.280;7.236;2022-09-21T09:12:37;5.47;;;2.63;;
870;SDS011;422;51.280;7.236;2022-09-21T09:15:16;3.67;;;2.60;;
870;SDS011;422;51.280;7.236;2022-09-21T09:17:52;8.17;;;2.43;;
870;SDS011;422;51.280;7.236;2022-09-21T09:20:31;4.37;;;2.60;;
870;SDS011;422;51.280;7.236;2022-09-21T09:23:04;5.73;;;2.77;;
870;SDS011;422;51.280;7.236;2022-09-21T09:25:36;11.13;;;2.50;;
870;SDS011;422;51.280;7.236;2022-09-21T09:28:12;7.90;;;3.37;;
870;SDS011;422;51.280;7.236;2022-09-21T09:30:48;6.57;;;3.00;;
870;SDS011;422;51.280;7.236;2022-09-21T09:33:22;5.70;;;4.00;;
870;SDS011;422;51.280;7.236;2022-09-21T09:35:57;8.87;;;4.20;;
870;SDS011;422;51.280;7.236;2022-09-21T09:38:31;8.30;;;4.23;;
870;SDS011;422;51.280;7.236;2022-09-21T09:41:12;6.50;;;4.50;;
870;SDS011;422;51.280;7.236;2022-09-21T09:44:01;8.90;;;4.60;;
870;SDS011;422;51.280;7.236;2022-09-21T09:46:42;9.23;;;4.90;;
870;SDS011;422;51.280;7.236;2022-09-21T09:49:21;4.90;;;3.20;;
870;SDS011;422;51.280;7.236;2022-09-21T09:52:01;4.30;;;2.83;;
870;SDS011;422;51.280;7.236;2022-09-21T09:54:32;3.00;;;1.90;;
870;SDS011;422;51.280;7.236;2022-09-21T09:57:03;5.37;;;2.70;;
870;SDS011;422;51.280;7.236;2022-09-21T09:59:35;4.80;;;2.57;;
870;SDS011;422;51.280;7.236;2022-09-21T10:02:17;3.33;;;2.57;;
870;SDS011;422;51.280;7.236;2022-09-21T10:04:53;3.50;;;2.17;;
870;SDS011;422;51.280;7.236;2022-09-21T10:07:36;2.87;;;2.20;;
870;SDS011;422;51.280;7.236;2022-09-21T10:13:01;2.47;;;2.17;;
870;SDS011;422;51.280;7.236;2022-09-21T10:15:42;3.70;;;2.13;;
870;SDS011;422;51.280;7.236;2022-09-21T10:18:15;4.37;;;2.60;;
870;SDS011;422;51.280;7.236;2022-09-21T10:20:55;4.87;;;2.90;;
870;SDS011;422;51.280;7.236;2022-09-21T10:23:29;3.97;;;2.50;;
870;SDS011;422;51.280;7.236;2022-09-21T10:26:00;7.40;;;3.07;;
870;SDS011;422;51.280;7.236;2022-09-21T10:28:29;5.63;;;2.80;;
870;SDS011;422;51.280;7.236;2022-09-21T10:31:11;5.40;;;2.83;;
870;SDS011;422;51.280;7.236;2022-09-21T10:33:48;3.17;;;2.20;;
870;SDS011;422;51.280;7.236;2022-09-21T10:36:23;2.90;;;2.53;;
870;SDS011;422;51.280;7.236;2022-09-21T10:38:58;6.63;;;2.50;;
870;SDS011;422;51.280;7.236;2022-09-21T10:41:52;3.80;;;2.07;;
870;SDS011;422;51.280;7.236;2022-09-21T10:44:25;3.37;;;2.20;;
870;SDS011;422;51.280;7.236;2022-09-21T10:47:02;3.67;;;2.73;;
870;SDS011;422;51.280;7.236;2022-09-21T10:49:42;3.70;;;3.13;;
870;SDS011;422;51.280;7.236;2022-09-21T10:52:12;4.30;;;2.13;;
870;SDS011;422;51.280;7.236;2022-09-21T10:54:43;3.63;;;2.00;;
870;SDS011;422;51.280;7.236;2022-09-21T10:57:14;3.50;;;2.10;;
870;SDS011;422;51.280;7.236;2022-09-21T10:59:43;4.17;;;2.27;;
870;SDS011;422;51.280;7.236;2022-09-21T11:02:24;4.57;;;2.20;;
870;SDS011;422;51.280;7.236;2022-09-21T11:05:01;2.73;;;2.10;;
870;SDS011;422;51.280;7.236;2022-09-21T11:07:40;4.10;;;2.67;;
870;SDS011;422;51.280;7.236;2022-09-21T11:10:17;4.00;;;2.10;;
870;SDS011;422;51.280;7.236;2022-09-21T11:12:54;3.03;;;2.27;;
870;SDS011;422;51.280;7.236;2022-09-21T11:15:39;3.40;;;2.23;;
870;SDS011;422;51.280;7.236;2022-09-21T11:18:14;3.03;;;2.23;;
870;SDS011;422;51.280;7.236;2022-09-21T11:20:50;4.47;;;2.40;;
870;SDS011;422;51.280;7.236;2022-09-21T11:23:28;3.33;;;2.00;;
870;SDS011;422;51.280;7.236;2022-09-21T11:26:09;4.50;;;2.27;;
870;SDS011;422;51.280;7.236;2022-09-21T11:28:44;3.57;;;2.07;;
870;SDS011;422;51.280;7.236;2022-09-21T11:31:34;3.50;;;2.17;;
870;SDS011;422;51.280;7.236;2022-09-21T11:37:27;4.33;;;2.27;;
870;SDS011;422;51.280;7.236;2022-09-21T11:40:07;3.20;;;2.00;;
870;SDS011;422;51.280;7.236;2022-09-21T11:42:53;2.63;;;2.40;;
870;SDS011;422;51.280;7.236;2022-09-21T11:45:44;2.97;;;1.90;;
870;SDS011;422;51.280;7.236;2022-09-21T11:48:22;3.37;;;2.00;;
870;SDS011;422;51.280;7.236;2022-09-21T11:51:03;2.80;;;1.73;;
870;SDS011;422;51.280;7.236;2022-09-21T11:53:41;4.37;;;2.97;;
870;SDS011;422;51.280;7.236;2022-09-21T11:56:24;4.23;;;2.13;;
870;SDS011;422;51.280;7.236;2022-09-21T11:59:23;3.10;;;2.20;;
870;SDS011;422;51.280;7.236;2022-09-21T12:02:23;2.90;;;2.10;;
870;SDS011;422;51.280;7.236;2022-09-21T12:05:01;4.70;;;2.23;;
870;SDS011;422;51.280;7.236;2022-09-21T12:07:43;5.47;;;3.00;;
870;SDS011;422;51.280;7.236;2022-09-21T12:10:37;4.10;;;2.63;;
870;SDS011;422;51.280;7.236;2022-09-21T12:13:15;2.70;;;2.00;;
870;SDS011;422;51.280;7.236;2022-09-21T12:15:52;5.07;;;2.30;;
870;SDS011;422;51.280;7.236;2022-09-21T12:18:39;3.63;;;2.30;;
870;SDS011;422;51.280;7.236;2022-09-21T12:21:13;3.30;;;2.10;;
870;SDS011;422;51.280;7.236;2022-09-21T12:23:47;4.07;;;2.30;;
870;SDS011;422;51.280;7.236;2022-09-21T12:26:22;3.33;;;2.33;;
870;SDS011;422;51.280;7.236;2022-09-21T12:28:56;3.50;;;2.27;;
870;SDS011;422;51.280;7.236;2022-09-21T12:31:30;3.23;;;2.17;;
870;SDS011;422;51.280;7.236;2022-09-21T12:34:08;2.37;;;1.67;;
870;SDS011;422;51.280;7.236;2022-09-21T12:36:43;3.60;;;2.70;;
870;SDS011;422;51.280;7.236;2022-09-21T12:39:21;2.50;;;1.80;;
870;SDS011;422;51.280;7.236;2022-09-21T12:41:53;2.70;;;2.00;;
870;SDS011;422;51.280;7.236;2022-09-21T12:44:30;2.63;;;2.00;;
870;SDS011;422;51.280;7.236;2022-09-21T12:47:18;2.93;;;2.10;;
870;SDS011;422;51.280;7.236;2022-09-21T12:49:55;2.27;;;2.07;;
870;SDS011;422;51.280;7.236;2022-09-21T12:52:26;4.10;;;2.67;;
870;SDS011;422;51.280;7.236;2022-09-21T12:54:59;4.30;;;2.20;;
870;SDS011;422;51.280;7.236;2022-09-21T12:57:37;2.00;;;1.80;;
870;SDS011;422;51.280;7.236;2022-09-21T13:00:15;2.83;;;2.50;;
870;SDS011;422;51.280;7.236;2022-09-21T13:02:49;3.60;;;2.30;;
870;SDS011;422;51.280;7.236;2022-09-21T13:05:28;2.50;;;1.87;;
870;SDS011;422;51.280;7.236;2022-09-21T13:08:03;2.60;;;1.73;;
870;SDS011;422;51.280;7.236;2022-09-21T13:10:36;2.27;;;2.00;;
870;SDS011;422;51.280;7.236;2022-09-21T13:13:16;2.33;;;2.13;;
870;SDS011;422;51.280;7.236;2022-09-21T13:15:50;3.70;;;2.33;;
870;SDS011;422;51.280;7.236;2022-09-21T13:18:22;2.80;;;2.00;;
870;SDS011;422;51.280;7.236;2022-09-21T13:20:56;3.30;;;2.03;;
870;SDS011;422;51.280;7.236;2022-09-21T13:23:26;3.00;;;2.50;;
870;SDS011;422;51.280;7.236;2022-09-21T13:26:05;3.40;;;2.00;;
870;SDS011;422;51.280;7.236;2022-09-21T13:28:39;2.60;;;2.03;;
870;SDS011;422;51.280;7.236;2022-09-21T13:31:50;2.70;;;1.87;;
870;SDS011;422;51.280;7.236;2022-09-21T13:34:30;4.43;;;2.60;;
870;SDS011;422;51.280;7.236;2022-09-21T13:43:18;3.53;;;2.10;;
870;SDS011;422;51.280;7.236;2022-09-21T13:45:54;4.70;;;2.27;;
870;SDS011;422;51.280;7.236;2022-09-21T13:48:24;5.60;;;2.40;;
870;SDS011;422;51.280;7.236;2022-09-21T13:50:59;6.50;;;2.70;;
870;SDS011;422;51.280;7.236;2022-09-21T13:53:36;4.30;;;2.10;;
870;SDS011;422;51.280;7.236;2022-09-21T13:58:53;2.63;;;2.13;;
870;SDS011;422;51.280;7.236;2022-09-21T14:01:23;4.20;;;1.93;;
870;SDS011;422;51.280;7.236;2022-09-21T14:03:59;4.93;;;2.43;;
870;SDS011;422;51.280;7.236;2022-09-21T14:06:31;6.67;;;2.77;;
870;SDS011;422;51.280;7.236;2022-09-21T14:09:03;3.03;;;2.10;;
870;SDS011;422;51.280;7.236;2022-09-21T14:11:35;5.20;;;2.10;;
870;SDS011;422;51.280;7.236;2022-09-21T14:14:07;3.73;;;2.00;;
870;SDS011;422;51.280;7.236;2022-09-21T14:22:36;1.63;;;1.50;;
870;SDS011;422;51.280;7.236;2022-09-21T14:28:02;3.43;;;2.07;;
870;SDS011;422;51.280;7.236;2022-09-21T14:30:36;2.30;;;1.87;;
870;SDS011;422;51.280;7.236;2022-09-21T14:33:09;4.23;;;1.70;;
870;SDS011;422;51.280;7.236;2022-09-21T14:35:45;1.90;;;1.73;;
870;SDS011;422;51.280;7.236;2022-09-21T14:38:17;2.50;;;2.20;;
870;SDS011;422;51.280;7.236;2022-09-21T14:40:48;2.20;;;1.90;;
870;SDS011;422;51.280;7.236;2022-09-21T14:43:17;3.07;;;2.53;;
870;SDS011;422;51.280;7.236;2022-09-21T14:45:53;1.97;;;1.77;;
870;SDS011;422;51.280;7.236;2022-09-21T14:48:37;2.60;;;1.63;;
870;SDS011;422;51.280;7.236;2022-09-21T14:51:17;2.20;;;1.93;;
870;SDS011;422;51.280;7.236;2022-09-21T14:54:06;3.03;;;1.80;;
870;SDS011;422;51.280;7.236;2022-09-21T14:56:59;2.80;;;2.00;;
870;SDS011;422;51.280;7.236;2022-09-21T15:02:31;4.60;;;2.33;;
870;SDS011;422;51.280;7.236;2022-09-21T15:05:08;2.23;;;1.77;;
870;SDS011;422;51.280;7.236;2022-09-21T15:07:46;2.53;;;2.27;;
870;SDS011;422;51.280;7.236;2022-09-21T15:10:46;3.37;;;2.30;;
870;SDS011;422;51.280;7.236;2022-09-21T15:13:43;3.33;;;2.40;;
870;SDS011;422;51.280;7.236;2022-09-21T15:16:37;4.93;;;2.00;;
870;SDS011;422;51.280;7.236;2022-09-21T15:19:11;2.43;;;2.07;;
870;SDS011;422;51.280;7.236;2022-09-21T15:21:41;2.40;;;1.93;;
870;SDS011;422;51.280;7.236;2022-09-21T15:24:17;2.43;;;2.00;;
870;SDS011;422;51.280;7.236;2022-09-21T15:26:48;5.87;;;2.40;;
870;SDS011;422;51.280;7.236;2022-09-21T15:29:22;3.43;;;2.20;;
870;SDS011;422;51.280;7.236;2022-09-21T15:31:51;2.23;;;1.97;;
870;SDS011;422;51.280;7.236;2022-09-21T15:34:19;3.90;;;2.37;;
870;SDS011;422;51.280;7.236;2022-09-21T15:36:47;3.43;;;2.00;;
870;SDS011;422;51.280;7.236;2022-09-21T15:39:26;3.00;;;2.20;;
870;SDS011;422;51.280;7.236;2022-09-21T15:44:47;3.50;;;2.60;;
870;SDS011;422;51.280;7.236;2022-09-21T15:47:21;2.80;;;2.00;;
870;SDS011;422;51.280;7.236;2022-09-21T15:49:53;2.97;;;1.93;;
870;SDS011;422;51.280;7.236;2022-09-21T15:52:22;3.37;;;3.07;;
870;SDS011;422;51.280;7.236;2022-09-21T15:54:57;2.20;;;1.63;;
870;SDS011;422;51.280;7.236;2022-09-21T15:57:32;3.17;;;1.97;;
870;SDS011;422;51.280;7.236;2022-09-21T16:00:16;5.90;;;1.90;;
870;SDS011;422;51.280;7.236;2022-09-21T16:02:53;3.80;;;2.30;;
870;SDS011;422;51.280;7.236;2022-09-21T16:05:30;3.10;;;1.97;;
870;SDS011;422;51.280;7.236;2022-09-21T16:08:05;4.13;;;2.20;;
870;SDS011;422;51.280;7.236;2022-09-21T16:10:47;4.37;;;2.83;;
870;SDS011;422;51.280;7.236;2022-09-21T16:13:18;3.80;;;2.43;;
870;SDS011;422;51.280;7.236;2022-09-21T16:16:07;2.53;;;2.17;;
870;SDS011;422;51.280;7.236;2022-09-21T16:18:44;2.90;;;1.87;;
870;SDS011;422;51.280;7.236;2022-09-21T16:21:16;3.37;;;1.77;;
870;SDS011;422;51.280;7.236;2022-09-21T16:23:47;3.73;;;2.47;;
870;SDS011;422;51.280;7.236;2022-09-21T16:26:20;3.00;;;1.90;;
870;SDS011;422;51.280;7.236;2022-09-21T16:28:59;2.30;;;2.07;;
870;SDS011;422;51.280;7.236;2022-09-21T16:31:43;5.67;;;2.20;;
870;SDS011;422;51.280;7.236;2022-09-21T16:34:18;3.67;;;2.90;;
870;SDS011;422;51.280;7.236;2022-09-21T16:36:47;2.90;;;2.30;;
870;SDS011;422;51.280;7.236;2022-09-21T16:39:16;3.83;;;2.37;;
870;SDS011;422;51.280;7.236;2022-09-21T16:41:51;3.00;;;2.23;;
870;SDS011;422;51.280;7.236;2022-09-21T16:44:25;3.40;;;1.80;;
870;SDS011;422;51.280;7.236;2022-09-21T16:47:10;4.70;;;2.77;;
870;SDS011;422;51.280;7.236;2022-09-21T16:49:41;2.83;;;2.63;;
870;SDS011;422;51.280;7.236;2022-09-21T16:52:09;7.63;;;2.43;;
870;SDS011;422;51.280;7.236;2022-09-21T16:54:36;3.70;;;2.40;;